sensor_id;sensor_type;location;lat;lon;timestamp;P1;durP1;ratioP1;P2;durP2;ratioP2
61054;SDS011;46939;48.940;8.258;2022-11-09T00:00:14;9.23;;;5.13;;
61054;SDS011;46939;48.940;8.258;2022-11-09T00:02:43;10.90;;;5.85;;
61054;SDS011;46939;48.940;8.258;2022-11-09T00:05:14;8.82;;;5.15;;
61054;SDS011;46939;48.940;8.258;2022-11-09T00:07:42;10.23;;;5.15;;
61054;SDS011;46939;48.940;8.258;2022-11-09T00:10:11;9.52;;;5.78;;
61054;SDS011;46939;48.940;8.258;2022-11-09T00:12:39;9.23;;;5.18;;
61054;SDS011;46939;48.940;8.258;2022-11-09T00:15:08;9.15;;;5.03;;
61054;SDS011;46939;48.940;8.258;2022-11-09T00:17:37;10.38;;;5.90;;
61054;SDS011;46939;48.940;8.258;2022-11-09T00:20:06;10.02;;;5.57;;
61054;SDS011;46939;48.940;8.258;2022-11-09T00:22:37;10.90;;;5.85;;
61054;SDS011;46939;48.940;8.258;2022-11-09T00:25:06;13.32;;;6.03;;
61054;SDS011;46939;48.940;8.258;2022-11-09T00:27:35;10.63;;;6.00;;
61054;SDS011;46939;48.940;8.258;2022-11-09T00:30:04;12.50;;;5.95;;
61054;SDS011;46939;48.940;8.258;2022-11-09T00:32:34;13.95;;;6.50;;
61054;SDS011;46939;48.940;8.258;2022-11-09T00:35:03;11.35;;;6.40;;
61054;SDS011;46939;48.940;8.258;2022-11-09T00:37:32;9.13;;;5.85;;
61054;SDS011;46939;48.940;8.258;2022-11-09T00:40:03;8.45;;;4.65;;
61054;SDS011;46939;48.940;8.258;2022-11-09T00:42:32;8.65;;;5.07;;
61054;SDS011;46939;48.940;8.258;2022-11-09T00:45:01;8.23;;;4.65;;
61054;SDS011;46939;48.940;8.258;2022-11-09T00:47:29;9.70;;;5.57;;
61054;SDS011;46939;48.940;8.258;2022-11-09T00:49:57;8.45;;;4.30;;
61054;SDS011;46939;48.940;8.258;2022-11-09T00:52:26;7.65;;;4.20;;
61054;SDS011;46939;48.940;8.258;2022-11-09T00:54:54;7.82;;;4.93;;
61054;SDS011;46939;48.940;8.258;2022-11-09T00:57:25;9.30;;;5.38;;
61054;SDS011;46939;48.940;8.258;2022-11-09T00:59:53;11.73;;;6.65;;
61054;SDS011;46939;48.940;8.258;2022-11-09T01:02:22;10.82;;;6.28;;
61054;SDS011;46939;48.940;8.258;2022-11-09T01:04:50;8.85;;;5.72;;
61054;SDS011;46939;48.940;8.258;2022-11-09T01:07:18;11.23;;;5.90;;
61054;SDS011;46939;48.940;8.258;2022-11-09T01:09:47;10.77;;;6.18;;
61054;SDS011;46939;48.940;8.258;2022-11-09T01:12:15;10.55;;;6.10;;
61054;SDS011;46939;48.940;8.258;2022-11-09T01:14:46;10.50;;;6.43;;
61054;SDS011;46939;48.940;8.258;2022-11-09T01:17:14;10.30;;;5.90;;
61054;SDS011;46939;48.940;8.258;2022-11-09T01:19:43;13.57;;;5.95;;
61054;SDS011;46939;48.940;8.258;2022-11-09T01:22:11;11.73;;;5.75;;
61054;SDS011;46939;48.940;8.258;2022-11-09T01:24:39;10.90;;;5.57;;
61054;SDS011;46939;48.940;8.258;2022-11-09T01:27:08;8.38;;;5.07;;
61054;SDS011;46939;48.940;8.258;2022-11-09T01:29:37;8.30;;;4.95;;
61054;SDS011;46939;48.940;8.258;2022-11-09T01:32:08;14.52;;;6.13;;
61054;SDS011;46939;48.940;8.258;2022-11-09T01:34:37;12.73;;;5.85;;
61054;SDS011;46939;48.940;8.258;2022-11-09T01:37:05;9.05;;;5.40;;
61054;SDS011;46939;48.940;8.258;2022-11-09T01:39:33;9.40;;;5.40;;
61054;SDS011;46939;48.940;8.258;2022-11-09T01:42:02;8.73;;;5.22;;
61054;SDS011;46939;48.940;8.258;2022-11-09T01:44:31;8.30;;;5.22;;
61054;SDS011;46939;48.940;8.258;2022-11-09T01:47:00;8.85;;;5.18;;
61054;SDS011;46939;48.940;8.258;2022-11-09T01:49:36;9.18;;;5.50;;
61054;SDS011;46939;48.940;8.258;2022-11-09T01:52:09;8.93;;;4.75;;
61054;SDS011;46939;48.940;8.258;2022-11-09T01:54:42;9.35;;;4.47;;
61054;SDS011;46939;48.940;8.258;2022-11-09T01:57:16;7.97;;;4.57;;
61054;SDS011;46939;48.940;8.258;2022-11-09T01:59:50;9.20;;;5.25;;
61054;SDS011;46939;48.940;8.258;2022-11-09T02:02:22;9.25;;;5.25;;
61054;SDS011;46939;48.940;8.258;2022-11-09T02:04:54;9.98;;;5.20;;
61054;SDS011;46939;48.940;8.258;2022-11-09T02:07:27;12.57;;;5.43;;
61054;SDS011;46939;48.940;8.258;2022-11-09T02:09:58;7.72;;;4.75;;
61054;SDS011;46939;48.940;8.258;2022-11-09T02:12:31;9.95;;;5.15;;
61054;SDS011;46939;48.940;8.258;2022-11-09T02:15:01;10.23;;;5.07;;
61054;SDS011;46939;48.940;8.258;2022-11-09T02:17:32;10.90;;;4.95;;
61054;SDS011;46939;48.940;8.258;2022-11-09T02:20:08;9.30;;;4.85;;
61054;SDS011;46939;48.940;8.258;2022-11-09T02:22:37;16.25;;;5.55;;
61054;SDS011;46939;48.940;8.258;2022-11-09T02:25:07;8.15;;;4.93;;
61054;SDS011;46939;48.940;8.258;2022-11-09T02:27:36;7.55;;;4.78;;
61054;SDS011;46939;48.940;8.258;2022-11-09T02:30:07;9.35;;;5.03;;
61054;SDS011;46939;48.940;8.258;2022-11-09T02:32:36;13.70;;;5.45;;
61054;SDS011;46939;48.940;8.258;2022-11-09T02:35:08;9.35;;;4.78;;
61054;SDS011;46939;48.940;8.258;2022-11-09T02:37:38;7.82;;;4.88;;
61054;SDS011;46939;48.940;8.258;2022-11-09T02:40:12;9.85;;;4.82;;
61054;SDS011;46939;48.940;8.258;2022-11-09T02:42:43;8.07;;;4.07;;
61054;SDS011;46939;48.940;8.258;2022-11-09T02:45:12;7.57;;;4.55;;
61054;SDS011;46939;48.940;8.258;2022-11-09T02:47:40;9.65;;;4.40;;
61054;SDS011;46939;48.940;8.258;2022-11-09T02:50:11;9.55;;;4.28;;
61054;SDS011;46939;48.940;8.258;2022-11-09T02:52:40;8.93;;;4.22;;
61054;SDS011;46939;48.940;8.258;2022-11-09T02:55:08;7.10;;;4.28;;
61054;SDS011;46939;48.940;8.258;2022-11-09T02:57:36;7.72;;;4.05;;
61054;SDS011;46939;48.940;8.258;2022-11-09T03:00:06;8.13;;;4.15;;
61054;SDS011;46939;48.940;8.258;2022-11-09T03:02:35;8.32;;;4.57;;
61054;SDS011;46939;48.940;8.258;2022-11-09T03:05:04;8.57;;;4.63;;
61054;SDS011;46939;48.940;8.258;2022-11-09T03:07:36;9.32;;;4.38;;
61054;SDS011;46939;48.940;8.258;2022-11-09T03:10:05;8.30;;;4.47;;
61054;SDS011;46939;48.940;8.258;2022-11-09T03:12:33;6.97;;;4.10;;
61054;SDS011;46939;48.940;8.258;2022-11-09T03:15:03;7.97;;;4.22;;
61054;SDS011;46939;48.940;8.258;2022-11-09T03:17:33;7.10;;;4.28;;
61054;SDS011;46939;48.940;8.258;2022-11-09T03:20:02;9.40;;;4.13;;
61054;SDS011;46939;48.940;8.258;2022-11-09T03:22:31;9.43;;;3.80;;
61054;SDS011;46939;48.940;8.258;2022-11-09T03:25:02;7.93;;;3.72;;
61054;SDS011;46939;48.940;8.258;2022-11-09T03:27:31;5.78;;;3.40;;
61054;SDS011;46939;48.940;8.258;2022-11-09T03:30:00;8.25;;;3.50;;
61054;SDS011;46939;48.940;8.258;2022-11-09T03:32:28;5.80;;;3.75;;
61054;SDS011;46939;48.940;8.258;2022-11-09T03:34:56;5.85;;;3.20;;
61054;SDS011;46939;48.940;8.258;2022-11-09T03:37:25;7.00;;;3.70;;
61054;SDS011;46939;48.940;8.258;2022-11-09T03:39:53;5.65;;;3.28;;
61054;SDS011;46939;48.940;8.258;2022-11-09T03:42:24;6.18;;;2.88;;
61054;SDS011;46939;48.940;8.258;2022-11-09T03:44:52;5.72;;;3.30;;
61054;SDS011;46939;48.940;8.258;2022-11-09T03:47:21;5.38;;;3.00;;
61054;SDS011;46939;48.940;8.258;2022-11-09T03:49:49;8.93;;;3.35;;
61054;SDS011;46939;48.940;8.258;2022-11-09T03:52:17;8.32;;;3.30;;
61054;SDS011;46939;48.940;8.258;2022-11-09T03:54:46;8.05;;;2.90;;
61054;SDS011;46939;48.940;8.258;2022-11-09T03:57:14;7.30;;;2.60;;
61054;SDS011;46939;48.940;8.258;2022-11-09T03:59:45;6.47;;;2.72;;
61054;SDS011;46939;48.940;8.258;2022-11-09T04:02:13;4.90;;;2.70;;
61054;SDS011;46939;48.940;8.258;2022-11-09T04:04:41;4.05;;;2.25;;
61054;SDS011;46939;48.940;8.258;2022-11-09T04:07:10;4.28;;;2.25;;
61054;SDS011;46939;48.940;8.258;2022-11-09T04:09:38;5.70;;;2.47;;
61054;SDS011;46939;48.940;8.258;2022-11-09T04:12:07;4.63;;;2.35;;
61054;SDS011;46939;48.940;8.258;2022-11-09T04:14:35;5.13;;;2.58;;
61054;SDS011;46939;48.940;8.258;2022-11-09T04:17:06;6.40;;;2.58;;
61054;SDS011;46939;48.940;8.258;2022-11-09T04:19:34;5.65;;;2.30;;
61054;SDS011;46939;48.940;8.258;2022-11-09T04:22:03;4.70;;;2.22;;
61054;SDS011;46939;48.940;8.258;2022-11-09T04:24:31;5.50;;;2.10;;
61054;SDS011;46939;48.940;8.258;2022-11-09T04:26:59;4.03;;;2.20;;
61054;SDS011;46939;48.940;8.258;2022-11-09T04:29:28;7.75;;;2.15;;
61054;SDS011;46939;48.940;8.258;2022-11-09T04:31:56;5.95;;;2.42;;
61054;SDS011;46939;48.940;8.258;2022-11-09T04:34:27;3.95;;;1.83;;
61054;SDS011;46939;48.940;8.258;2022-11-09T04:36:55;4.88;;;1.80;;
61054;SDS011;46939;48.940;8.258;2022-11-09T04:39:24;3.88;;;1.67;;
61054;SDS011;46939;48.940;8.258;2022-11-09T04:41:52;2.95;;;1.88;;
61054;SDS011;46939;48.940;8.258;2022-11-09T04:44:20;4.97;;;2.00;;
61054;SDS011;46939;48.940;8.258;2022-11-09T04:46:49;7.38;;;2.17;;
61054;SDS011;46939;48.940;8.258;2022-11-09T04:49:17;3.58;;;1.77;;
61054;SDS011;46939;48.940;8.258;2022-11-09T04:51:48;3.45;;;1.63;;
61054;SDS011;46939;48.940;8.258;2022-11-09T04:54:16;3.78;;;1.88;;
61054;SDS011;46939;48.940;8.258;2022-11-09T04:56:45;4.13;;;1.50;;
61054;SDS011;46939;48.940;8.258;2022-11-09T04:59:13;4.63;;;1.92;;
61054;SDS011;46939;48.940;8.258;2022-11-09T05:01:41;3.78;;;1.75;;
61054;SDS011;46939;48.940;8.258;2022-11-09T05:04:10;3.42;;;1.95;;
61054;SDS011;46939;48.940;8.258;2022-11-09T05:06:38;3.65;;;1.55;;
61054;SDS011;46939;48.940;8.258;2022-11-09T05:09:09;3.70;;;1.60;;
61054;SDS011;46939;48.940;8.258;2022-11-09T05:11:37;3.28;;;1.80;;
61054;SDS011;46939;48.940;8.258;2022-11-09T05:14:06;3.22;;;1.65;;
61054;SDS011;46939;48.940;8.258;2022-11-09T05:16:34;4.00;;;1.63;;
61054;SDS011;46939;48.940;8.258;2022-11-09T05:19:03;5.10;;;1.70;;
61054;SDS011;46939;48.940;8.258;2022-11-09T05:21:31;2.42;;;1.25;;
61054;SDS011;46939;48.940;8.258;2022-11-09T05:23:59;3.10;;;1.60;;
61054;SDS011;46939;48.940;8.258;2022-11-09T05:26:29;3.17;;;1.60;;
61054;SDS011;46939;48.940;8.258;2022-11-09T05:28:58;2.95;;;1.70;;
61054;SDS011;46939;48.940;8.258;2022-11-09T05:31:28;4.15;;;2.00;;
61054;SDS011;46939;48.940;8.258;2022-11-09T05:33:56;4.55;;;2.10;;
61054;SDS011;46939;48.940;8.258;2022-11-09T05:36:26;6.68;;;2.00;;
61054;SDS011;46939;48.940;8.258;2022-11-09T05:38:55;4.47;;;1.90;;
61054;SDS011;46939;48.940;8.258;2022-11-09T05:41:24;2.70;;;1.60;;
61054;SDS011;46939;48.940;8.258;2022-11-09T05:43:55;8.75;;;1.73;;
61054;SDS011;46939;48.940;8.258;2022-11-09T05:46:24;4.60;;;1.52;;
61054;SDS011;46939;48.940;8.258;2022-11-09T05:48:53;5.97;;;1.42;;
61054;SDS011;46939;48.940;8.258;2022-11-09T05:51:21;4.07;;;0.98;;
61054;SDS011;46939;48.940;8.258;2022-11-09T05:53:49;3.22;;;0.77;;
61054;SDS011;46939;48.940;8.258;2022-11-09T05:56:18;2.33;;;0.65;;
61054;SDS011;46939;48.940;8.258;2022-11-09T05:58:46;1.20;;;0.70;;
61054;SDS011;46939;48.940;8.258;2022-11-09T06:01:17;1.75;;;0.65;;
61054;SDS011;46939;48.940;8.258;2022-11-09T06:03:45;4.43;;;0.77;;
61054;SDS011;46939;48.940;8.258;2022-11-09T06:06:14;1.48;;;0.40;;
61054;SDS011;46939;48.940;8.258;2022-11-09T06:08:43;1.70;;;0.40;;
61054;SDS011;46939;48.940;8.258;2022-11-09T06:11:12;2.10;;;0.60;;
61054;SDS011;46939;48.940;8.258;2022-11-09T06:13:40;1.38;;;0.40;;
61054;SDS011;46939;48.940;8.258;2022-11-09T06:16:09;4.03;;;0.30;;
61054;SDS011;46939;48.940;8.258;2022-11-09T06:18:40;1.00;;;0.20;;
61054;SDS011;46939;48.940;8.258;2022-11-09T06:21:08;1.05;;;0.30;;
61054;SDS011;46939;48.940;8.258;2022-11-09T06:23:37;1.65;;;0.50;;
61054;SDS011;46939;48.940;8.258;2022-11-09T06:26:06;2.45;;;0.70;;
61054;SDS011;46939;48.940;8.258;2022-11-09T06:28:36;1.42;;;0.52;;
61054;SDS011;46939;48.940;8.258;2022-11-09T06:31:05;2.15;;;0.50;;
61054;SDS011;46939;48.940;8.258;2022-11-09T06:33:35;1.60;;;0.50;;
61054;SDS011;46939;48.940;8.258;2022-11-09T06:36:06;0.70;;;0.40;;
61054;SDS011;46939;48.940;8.258;2022-11-09T06:38:36;1.10;;;0.30;;
61054;SDS011;46939;48.940;8.258;2022-11-09T06:41:05;1.27;;;0.40;;
61054;SDS011;46939;48.940;8.258;2022-11-09T06:43:33;2.92;;;0.50;;
61054;SDS011;46939;48.940;8.258;2022-11-09T06:46:02;2.17;;;0.85;;
61054;SDS011;46939;48.940;8.258;2022-11-09T06:48:33;3.17;;;0.80;;
61054;SDS011;46939;48.940;8.258;2022-11-09T06:51:02;5.30;;;1.17;;
61054;SDS011;46939;48.940;8.258;2022-11-09T06:53:34;2.95;;;1.20;;
61054;SDS011;46939;48.940;8.258;2022-11-09T06:56:05;2.85;;;1.38;;
61054;SDS011;46939;48.940;8.258;2022-11-09T06:58:34;2.85;;;1.42;;
61054;SDS011;46939;48.940;8.258;2022-11-09T07:01:07;2.33;;;0.95;;
61054;SDS011;46939;48.940;8.258;2022-11-09T07:03:36;1.85;;;1.13;;
61054;SDS011;46939;48.940;8.258;2022-11-09T07:06:08;2.72;;;1.20;;
61054;SDS011;46939;48.940;8.258;2022-11-09T07:08:38;6.00;;;1.88;;
61054;SDS011;46939;48.940;8.258;2022-11-09T07:11:08;4.90;;;1.40;;
61054;SDS011;46939;48.940;8.258;2022-11-09T07:13:38;3.50;;;1.67;;
61054;SDS011;46939;48.940;8.258;2022-11-09T07:16:07;4.82;;;1.58;;
61054;SDS011;46939;48.940;8.258;2022-11-09T07:18:36;2.30;;;1.23;;
61054;SDS011;46939;48.940;8.258;2022-11-09T07:21:05;3.40;;;1.20;;
61054;SDS011;46939;48.940;8.258;2022-11-09T07:23:36;2.90;;;1.30;;
61054;SDS011;46939;48.940;8.258;2022-11-09T07:26:07;3.20;;;1.55;;
61054;SDS011;46939;48.940;8.258;2022-11-09T07:28:36;2.58;;;1.58;;
61054;SDS011;46939;48.940;8.258;2022-11-09T07:31:04;3.58;;;1.80;;
61054;SDS011;46939;48.940;8.258;2022-11-09T07:33:33;4.07;;;1.50;;
61054;SDS011;46939;48.940;8.258;2022-11-09T07:36:02;4.45;;;1.42;;
61054;SDS011;46939;48.940;8.258;2022-11-09T07:38:34;3.05;;;1.58;;
61054;SDS011;46939;48.940;8.258;2022-11-09T07:41:02;2.92;;;1.60;;
61054;SDS011;46939;48.940;8.258;2022-11-09T07:43:31;3.38;;;1.90;;
61054;SDS011;46939;48.940;8.258;2022-11-09T07:46:02;2.63;;;1.30;;
61054;SDS011;46939;48.940;8.258;2022-11-09T07:48:31;2.17;;;1.30;;
61054;SDS011;46939;48.940;8.258;2022-11-09T07:51:00;2.40;;;1.20;;
61054;SDS011;46939;48.940;8.258;2022-11-09T07:53:28;3.75;;;1.40;;
61054;SDS011;46939;48.940;8.258;2022-11-09T07:56:00;2.70;;;1.20;;
61054;SDS011;46939;48.940;8.258;2022-11-09T07:58:30;2.60;;;1.20;;
61054;SDS011;46939;48.940;8.258;2022-11-09T08:01:00;3.88;;;1.50;;
61054;SDS011;46939;48.940;8.258;2022-11-09T08:03:28;3.28;;;1.48;;
61054;SDS011;46939;48.940;8.258;2022-11-09T08:05:57;2.75;;;1.50;;
61054;SDS011;46939;48.940;8.258;2022-11-09T08:08:25;7.82;;;1.60;;
61054;SDS011;46939;48.940;8.258;2022-11-09T08:10:55;5.07;;;1.63;;
61054;SDS011;46939;48.940;8.258;2022-11-09T08:13:26;4.50;;;1.45;;
61054;SDS011;46939;48.940;8.258;2022-11-09T08:15:55;3.28;;;1.38;;
61054;SDS011;46939;48.940;8.258;2022-11-09T08:18:23;8.38;;;1.52;;
61054;SDS011;46939;48.940;8.258;2022-11-09T08:20:51;3.83;;;1.60;;
61054;SDS011;46939;48.940;8.258;2022-11-09T08:23:20;2.85;;;1.50;;
61054;SDS011;46939;48.940;8.258;2022-11-09T08:25:49;4.13;;;1.40;;
61054;SDS011;46939;48.940;8.258;2022-11-09T08:28:17;3.88;;;1.33;;
61054;SDS011;46939;48.940;8.258;2022-11-09T08:30:53;3.03;;;1.00;;
61054;SDS011;46939;48.940;8.258;2022-11-09T08:33:22;3.35;;;1.42;;
61054;SDS011;46939;48.940;8.258;2022-11-09T08:35:52;2.55;;;1.08;;
61054;SDS011;46939;48.940;8.258;2022-11-09T08:38:20;2.67;;;0.90;;
61054;SDS011;46939;48.940;8.258;2022-11-09T08:40:49;2.53;;;0.90;;
61054;SDS011;46939;48.940;8.258;2022-11-09T08:43:17;4.45;;;1.10;;
61054;SDS011;46939;48.940;8.258;2022-11-09T08:45:46;1.58;;;0.80;;
61054;SDS011;46939;48.940;8.258;2022-11-09T08:48:17;2.03;;;0.82;;
61054;SDS011;46939;48.940;8.258;2022-11-09T08:50:50;4.20;;;0.88;;
61054;SDS011;46939;48.940;8.258;2022-11-09T08:53:19;2.83;;;0.90;;
61054;SDS011;46939;48.940;8.258;2022-11-09T08:55:47;2.03;;;0.90;;
61054;SDS011;46939;48.940;8.258;2022-11-09T08:58:16;4.53;;;1.17;;
61054;SDS011;46939;48.940;8.258;2022-11-09T09:00:44;3.35;;;1.50;;
61054;SDS011;46939;48.940;8.258;2022-11-09T09:03:15;2.72;;;1.50;;
61054;SDS011;46939;48.940;8.258;2022-11-09T09:05:44;4.30;;;1.42;;
61054;SDS011;46939;48.940;8.258;2022-11-09T09:08:12;1.73;;;0.90;;
61054;SDS011;46939;48.940;8.258;2022-11-09T09:10:45;1.75;;;1.00;;
61054;SDS011;46939;48.940;8.258;2022-11-09T09:13:14;1.90;;;1.00;;
61054;SDS011;46939;48.940;8.258;2022-11-09T09:15:43;3.03;;;0.88;;
61054;SDS011;46939;48.940;8.258;2022-11-09T09:18:11;2.63;;;1.33;;
61054;SDS011;46939;48.940;8.258;2022-11-09T09:20:42;6.25;;;0.95;;
61054;SDS011;46939;48.940;8.258;2022-11-09T09:23:10;4.97;;;0.80;;
61054;SDS011;46939;48.940;8.258;2022-11-09T09:25:40;1.38;;;0.70;;
61054;SDS011;46939;48.940;8.258;2022-11-09T09:28:08;1.27;;;0.60;;
61054;SDS011;46939;48.940;8.258;2022-11-09T09:30:36;2.72;;;0.73;;
61054;SDS011;46939;48.940;8.258;2022-11-09T09:33:05;2.08;;;0.73;;
61054;SDS011;46939;48.940;8.258;2022-11-09T09:35:33;1.33;;;0.68;;
61054;SDS011;46939;48.940;8.258;2022-11-09T09:38:04;2.90;;;1.05;;
61054;SDS011;46939;48.940;8.258;2022-11-09T09:40:34;2.17;;;0.85;;
61054;SDS011;46939;48.940;8.258;2022-11-09T09:43:09;1.50;;;0.60;;
61054;SDS011;46939;48.940;8.258;2022-11-09T09:45:43;2.25;;;0.68;;
61054;SDS011;46939;48.940;8.258;2022-11-09T09:48:20;1.05;;;0.60;;
61054;SDS011;46939;48.940;8.258;2022-11-09T09:50:57;3.35;;;0.80;;
61054;SDS011;46939;48.940;8.258;2022-11-09T09:53:34;1.92;;;0.80;;
61054;SDS011;46939;48.940;8.258;2022-11-09T09:56:08;2.20;;;0.77;;
61054;SDS011;46939;48.940;8.258;2022-11-09T09:58:41;3.25;;;0.75;;
61054;SDS011;46939;48.940;8.258;2022-11-09T10:01:16;5.07;;;1.00;;
61054;SDS011;46939;48.940;8.258;2022-11-09T10:03:48;3.58;;;1.00;;
61054;SDS011;46939;48.940;8.258;2022-11-09T10:06:35;3.05;;;1.00;;
61054;SDS011;46939;48.940;8.258;2022-11-09T10:09:19;3.63;;;1.02;;
61054;SDS011;46939;48.940;8.258;2022-11-09T10:11:55;2.92;;;0.80;;
61054;SDS011;46939;48.940;8.258;2022-11-09T10:14:36;2.47;;;0.98;;
61054;SDS011;46939;48.940;8.258;2022-11-09T10:17:18;2.08;;;0.90;;
61054;SDS011;46939;48.940;8.258;2022-11-09T10:20:02;3.58;;;1.00;;
61054;SDS011;46939;48.940;8.258;2022-11-09T10:22:45;3.30;;;1.00;;
61054;SDS011;46939;48.940;8.258;2022-11-09T10:25:25;2.28;;;0.93;;
61054;SDS011;46939;48.940;8.258;2022-11-09T10:27:56;1.63;;;0.70;;
61054;SDS011;46939;48.940;8.258;2022-11-09T10:30:26;2.13;;;1.00;;
61054;SDS011;46939;48.940;8.258;2022-11-09T10:32:58;2.05;;;1.17;;
61054;SDS011;46939;48.940;8.258;2022-11-09T10:35:40;2.97;;;1.05;;
61054;SDS011;46939;48.940;8.258;2022-11-09T10:38:12;2.40;;;0.85;;
61054;SDS011;46939;48.940;8.258;2022-11-09T10:40:51;2.92;;;0.90;;
61054;SDS011;46939;48.940;8.258;2022-11-09T10:43:23;3.10;;;1.00;;
61054;SDS011;46939;48.940;8.258;2022-11-09T10:45:57;2.55;;;1.00;;
61054;SDS011;46939;48.940;8.258;2022-11-09T10:48:30;3.28;;;0.90;;
61054;SDS011;46939;48.940;8.258;2022-11-09T10:51:00;4.57;;;1.23;;
61054;SDS011;46939;48.940;8.258;2022-11-09T10:53:29;2.35;;;0.93;;
61054;SDS011;46939;48.940;8.258;2022-11-09T10:56:09;2.78;;;1.10;;
61054;SDS011;46939;48.940;8.258;2022-11-09T10:58:44;2.92;;;1.00;;
61054;SDS011;46939;48.940;8.258;2022-11-09T11:01:15;2.85;;;1.00;;
61054;SDS011;46939;48.940;8.258;2022-11-09T11:03:48;2.67;;;0.75;;
61054;SDS011;46939;48.940;8.258;2022-11-09T11:06:25;2.30;;;1.00;;
61054;SDS011;46939;48.940;8.258;2022-11-09T11:09:13;1.45;;;0.63;;
61054;SDS011;46939;48.940;8.258;2022-11-09T11:11:46;4.30;;;1.10;;
61054;SDS011;46939;48.940;8.258;2022-11-09T11:14:16;3.03;;;1.05;;
61054;SDS011;46939;48.940;8.258;2022-11-09T11:16:49;3.28;;;1.05;;
61054;SDS011;46939;48.940;8.258;2022-11-09T11:22:17;2.45;;;0.90;;
61054;SDS011;46939;48.940;8.258;2022-11-09T11:24:53;2.22;;;0.85;;
61054;SDS011;46939;48.940;8.258;2022-11-09T11:27:27;2.30;;;1.00;;
61054;SDS011;46939;48.940;8.258;2022-11-09T11:30:04;3.40;;;0.98;;
61054;SDS011;46939;48.940;8.258;2022-11-09T11:32:37;3.58;;;1.27;;
61054;SDS011;46939;48.940;8.258;2022-11-09T11:35:11;2.42;;;1.00;;
61054;SDS011;46939;48.940;8.258;2022-11-09T11:37:43;3.20;;;1.10;;
61054;SDS011;46939;48.940;8.258;2022-11-09T11:40:21;3.38;;;1.23;;
61054;SDS011;46939;48.940;8.258;2022-11-09T11:45:56;3.15;;;1.20;;
61054;SDS011;46939;48.940;8.258;2022-11-09T11:48:46;2.55;;;0.90;;
61054;SDS011;46939;48.940;8.258;2022-11-09T11:51:24;5.55;;;1.50;;
61054;SDS011;46939;48.940;8.258;2022-11-09T11:54:03;2.72;;;1.52;;
61054;SDS011;46939;48.940;8.258;2022-11-09T11:56:40;3.05;;;1.38;;
61054;SDS011;46939;48.940;8.258;2022-11-09T11:59:26;2.72;;;1.20;;
61054;SDS011;46939;48.940;8.258;2022-11-09T12:02:23;2.97;;;1.35;;
61054;SDS011;46939;48.940;8.258;2022-11-09T12:05:15;3.72;;;1.42;;
61054;SDS011;46939;48.940;8.258;2022-11-09T12:08:04;4.18;;;1.65;;
61054;SDS011;46939;48.940;8.258;2022-11-09T12:10:42;3.53;;;1.60;;
61054;SDS011;46939;48.940;8.258;2022-11-09T12:13:24;4.50;;;1.70;;
61054;SDS011;46939;48.940;8.258;2022-11-09T12:16:07;6.05;;;1.67;;
61054;SDS011;46939;48.940;8.258;2022-11-09T12:18:41;8.13;;;1.67;;
61054;SDS011;46939;48.940;8.258;2022-11-09T12:21:21;3.88;;;1.80;;
61054;SDS011;46939;48.940;8.258;2022-11-09T12:24:00;5.65;;;1.98;;
61054;SDS011;46939;48.940;8.258;2022-11-09T12:26:41;3.67;;;1.67;;
61054;SDS011;46939;48.940;8.258;2022-11-09T12:29:18;4.60;;;1.80;;
61054;SDS011;46939;48.940;8.258;2022-11-09T12:31:56;5.88;;;2.05;;
61054;SDS011;46939;48.940;8.258;2022-11-09T12:34:33;4.10;;;1.95;;
61054;SDS011;46939;48.940;8.258;2022-11-09T12:37:08;4.55;;;1.80;;
61054;SDS011;46939;48.940;8.258;2022-11-09T12:39:42;3.75;;;1.90;;
61054;SDS011;46939;48.940;8.258;2022-11-09T12:42:15;4.80;;;2.45;;
61054;SDS011;46939;48.940;8.258;2022-11-09T12:44:47;5.40;;;2.00;;
61054;SDS011;46939;48.940;8.258;2022-11-09T12:47:26;4.00;;;1.90;;
61054;SDS011;46939;48.940;8.258;2022-11-09T12:50:00;4.03;;;1.92;;
61054;SDS011;46939;48.940;8.258;2022-11-09T12:52:32;5.85;;;2.20;;
61054;SDS011;46939;48.940;8.258;2022-11-09T12:55:00;4.68;;;2.20;;
61054;SDS011;46939;48.940;8.258;2022-11-09T12:57:32;3.85;;;2.20;;
61054;SDS011;46939;48.940;8.258;2022-11-09T13:00:00;4.40;;;2.35;;
61054;SDS011;46939;48.940;8.258;2022-11-09T13:02:33;3.72;;;2.08;;
61054;SDS011;46939;48.940;8.258;2022-11-09T13:05:05;4.20;;;2.17;;
61054;SDS011;46939;48.940;8.258;2022-11-09T13:07:54;4.30;;;1.98;;
61054;SDS011;46939;48.940;8.258;2022-11-09T13:10:27;3.95;;;2.00;;
61054;SDS011;46939;48.940;8.258;2022-11-09T13:13:02;5.53;;;2.25;;
61054;SDS011;46939;48.940;8.258;2022-11-09T13:15:33;5.00;;;2.20;;
61054;SDS011;46939;48.940;8.258;2022-11-09T13:18:20;3.72;;;1.63;;
61054;SDS011;46939;48.940;8.258;2022-11-09T13:20:51;5.90;;;2.08;;
61054;SDS011;46939;48.940;8.258;2022-11-09T13:23:30;6.80;;;2.28;;
61054;SDS011;46939;48.940;8.258;2022-11-09T13:26:00;5.15;;;1.77;;
61054;SDS011;46939;48.940;8.258;2022-11-09T13:28:39;4.10;;;1.90;;
61054;SDS011;46939;48.940;8.258;2022-11-09T13:31:09;4.35;;;2.00;;
61054;SDS011;46939;48.940;8.258;2022-11-09T13:33:42;3.47;;;1.92;;
61054;SDS011;46939;48.940;8.258;2022-11-09T13:36:14;5.28;;;1.52;;
61054;SDS011;46939;48.940;8.258;2022-11-09T13:38:45;5.03;;;2.20;;
61054;SDS011;46939;48.940;8.258;2022-11-09T13:41:43;5.38;;;2.05;;
61054;SDS011;46939;48.940;8.258;2022-11-09T13:44:23;6.43;;;1.92;;
61054;SDS011;46939;48.940;8.258;2022-11-09T13:46:53;9.40;;;2.20;;
61054;SDS011;46939;48.940;8.258;2022-11-09T13:58:04;4.15;;;2.40;;
61054;SDS011;46939;48.940;8.258;2022-11-09T14:00:43;4.95;;;2.40;;
61054;SDS011;46939;48.940;8.258;2022-11-09T14:03:16;5.20;;;2.45;;
61054;SDS011;46939;48.940;8.258;2022-11-09T14:05:51;5.28;;;2.50;;
61054;SDS011;46939;48.940;8.258;2022-11-09T14:08:22;5.47;;;2.25;;
61054;SDS011;46939;48.940;8.258;2022-11-09T14:10:57;7.50;;;3.28;;
61054;SDS011;46939;48.940;8.258;2022-11-09T14:13:53;5.97;;;2.78;;
61054;SDS011;46939;48.940;8.258;2022-11-09T14:16:32;8.80;;;2.60;;
61054;SDS011;46939;48.940;8.258;2022-11-09T14:19:12;5.85;;;2.78;;
61054;SDS011;46939;48.940;8.258;2022-11-09T14:21:49;4.93;;;2.83;;
61054;SDS011;46939;48.940;8.258;2022-11-09T14:24:19;6.15;;;2.65;;
61054;SDS011;46939;48.940;8.258;2022-11-09T14:27:02;5.45;;;2.63;;
61054;SDS011;46939;48.940;8.258;2022-11-09T14:29:46;3.80;;;2.70;;
61054;SDS011;46939;48.940;8.258;2022-11-09T14:32:23;6.93;;;2.47;;
61054;SDS011;46939;48.940;8.258;2022-11-09T14:35:08;7.78;;;2.58;;
61054;SDS011;46939;48.940;8.258;2022-11-09T14:37:50;5.43;;;2.80;;
61054;SDS011;46939;48.940;8.258;2022-11-09T14:40:22;3.72;;;2.50;;
61054;SDS011;46939;48.940;8.258;2022-11-09T14:42:53;4.68;;;2.70;;
61054;SDS011;46939;48.940;8.258;2022-11-09T14:45:24;5.80;;;2.53;;
61054;SDS011;46939;48.940;8.258;2022-11-09T14:47:54;7.00;;;2.50;;
61054;SDS011;46939;48.940;8.258;2022-11-09T14:50:25;3.20;;;1.90;;
61054;SDS011;46939;48.940;8.258;2022-11-09T14:52:58;4.90;;;2.60;;
61054;SDS011;46939;48.940;8.258;2022-11-09T14:55:28;4.65;;;2.53;;
61054;SDS011;46939;48.940;8.258;2022-11-09T14:57:58;5.07;;;2.25;;
61054;SDS011;46939;48.940;8.258;2022-11-09T15:00:29;5.90;;;2.45;;
61054;SDS011;46939;48.940;8.258;2022-11-09T15:03:10;4.43;;;2.10;;
61054;SDS011;46939;48.940;8.258;2022-11-09T15:05:48;4.18;;;2.30;;
61054;SDS011;46939;48.940;8.258;2022-11-09T15:08:31;4.57;;;2.17;;
61054;SDS011;46939;48.940;8.258;2022-11-09T15:11:00;4.43;;;2.40;;
61054;SDS011;46939;48.940;8.258;2022-11-09T15:13:32;3.58;;;2.17;;
61054;SDS011;46939;48.940;8.258;2022-11-09T15:16:05;5.45;;;2.53;;
61054;SDS011;46939;48.940;8.258;2022-11-09T15:18:35;6.03;;;2.33;;
61054;SDS011;46939;48.940;8.258;2022-11-09T15:21:12;8.88;;;3.88;;
61054;SDS011;46939;48.940;8.258;2022-11-09T15:23:45;6.45;;;3.60;;
61054;SDS011;46939;48.940;8.258;2022-11-09T15:26:31;5.32;;;2.60;;